sensor_id;sensor_type;location;lat;lon;timestamp;pressure;altitude;pressure_sealevel;temperature;humidity
43503;BME280;29098;48.184;16.298;2023-02-02T00:01:52;99318.72;;;2.10;100.00
43503;BME280;29098;48.184;16.298;2023-02-02T00:04:18;99323.59;;;2.25;100.00
43503;BME280;29098;48.184;16.298;2023-02-02T00:06:44;99336.50;;;2.05;100.00
43503;BME280;29098;48.184;16.298;2023-02-02T00:09:11;99343.16;;;1.98;100.00
43503;BME280;29098;48.184;16.298;2023-02-02T00:11:37;99336.44;;;1.74;100.00
43503;BME280;29098;48.184;16.298;2023-02-02T00:14:02;99340.97;;;1.60;100.00
43503;BME280;29098;48.184;16.298;2023-02-02T00:18:53;99342.41;;;1.53;100.00
43503;BME280;29098;48.184;16.298;2023-02-02T00:21:20;99327.19;;;1.48;100.00
43503;BME280;29098;48.184;16.298;2023-02-02T00:23:45;99309.13;;;1.47;100.00
43503;BME280;29098;48.184;16.298;2023-02-02T00:26:14;99293.53;;;1.47;100.00
43503;BME280;29098;48.184;16.298;2023-02-02T00:28:39;99273.59;;;1.36;100.00
43503;BME280;29098;48.184;16.298;2023-02-02T00:31:05;99261.09;;;1.41;100.00
43503;BME280;29098;48.184;16.298;2023-02-02T00:33:31;99264.69;;;1.50;100.00
43503;BME280;29098;48.184;16.298;2023-02-02T00:35:56;99269.47;;;1.66;100.00
43503;BME280;29098;48.184;16.298;2023-02-02T00:38:22;99269.59;;;1.64;100.00
43503;BME280;29098;48.184;16.298;2023-02-02T00:40:47;99263.50;;;1.54;100.00
43503;BME280;29098;48.184;16.298;2023-02-02T00:43:12;99270.16;;;1.47;100.00
43503;BME280;29098;48.184;16.298;2023-02-02T00:45:37;99263.50;;;1.54;100.00
43503;BME280;29098;48.184;16.298;2023-02-02T00:48:03;99260.22;;;1.52;100.00
43503;BME280;29098;48.184;16.298;2023-02-02T00:50:29;99268.44;;;1.57;100.00
43503;BME280;29098;48.184;16.298;2023-02-02T00:52:54;99266.06;;;1.33;100.00
43503;BME280;29098;48.184;16.298;2023-02-02T00:55:22;99259.06;;;1.45;100.00
43503;BME280;29098;48.184;16.298;2023-02-02T00:57:47;99260.13;;;1.42;100.00
43503;BME280;29098;48.184;16.298;2023-02-02T01:00:13;99255.78;;;1.64;100.00
43503;BME280;29098;48.184;16.298;2023-02-02T01:02:39;99271.28;;;1.54;100.00
43503;BME280;29098;48.184;16.298;2023-02-02T01:05:05;99283.13;;;1.47;100.00
43503;BME280;29098;48.184;16.298;2023-02-02T01:07:30;99275.88;;;1.62;100.00
43503;BME280;29098;48.184;16.298;2023-02-02T01:09:56;99279.34;;;1.51;100.00
43503;BME280;29098;48.184;16.298;2023-02-02T01:12:21;99292.72;;;1.46;100.00
43503;BME280;29098;48.184;16.298;2023-02-02T01:14:47;99283.50;;;1.42;100.00
43503;BME280;29098;48.184;16.298;2023-02-02T01:17:12;99291.09;;;1.67;100.00
43503;BME280;29098;48.184;16.298;2023-02-02T01:19:38;99286.22;;;1.41;100.00
43503;BME280;29098;48.184;16.298;2023-02-02T01:22:04;99295.47;;;1.33;100.00
43503;BME280;29098;48.184;16.298;2023-02-02T01:24:30;99302.06;;;1.38;100.00
43503;BME280;29098;48.184;16.298;2023-02-02T01:26:55;99312.47;;;1.26;100.00
43503;BME280;29098;48.184;16.298;2023-02-02T01:29:20;99308.97;;;1.16;100.00
43503;BME280;29098;48.184;16.298;2023-02-02T01:31:46;99293.88;;;1.09;100.00
43503;BME280;29098;48.184;16.298;2023-02-02T01:34:11;99267.53;;;1.14;100.00
43503;BME280;29098;48.184;16.298;2023-02-02T01:36:36;99248.41;;;1.15;100.00
43503;BME280;29098;48.184;16.298;2023-02-02T01:39:02;99271.19;;;1.23;100.00
43503;BME280;29098;48.184;16.298;2023-02-02T01:41:27;99250.44;;;1.12;100.00
43503;BME280;29098;48.184;16.298;2023-02-02T01:44:00;99264.00;;;1.15;100.00
43503;BME280;29098;48.184;16.298;2023-02-02T01:46:35;99257.28;;;1.13;100.00
43503;BME280;29098;48.184;16.298;2023-02-02T01:49:14;99258.47;;;1.08;100.00
43503;BME280;29098;48.184;16.298;2023-02-02T01:52:02;99266.09;;;1.21;100.00
43503;BME280;29098;48.184;16.298;2023-02-02T01:54:33;99255.13;;;1.18;100.00
43503;BME280;29098;48.184;16.298;2023-02-02T01:57:01;99262.41;;;1.35;100.00
43503;BME280;29098;48.184;16.298;2023-02-02T01:59:27;99248.66;;;1.45;100.00
43503;BME280;29098;48.184;16.298;2023-02-02T02:01:54;99249.47;;;1.45;100.00
43503;BME280;29098;48.184;16.298;2023-02-02T02:04:20;99252.66;;;1.49;100.00
43503;BME280;29098;48.184;16.298;2023-02-02T02:06:46;99259.72;;;1.58;100.00
43503;BME280;29098;48.184;16.298;2023-02-02T02:09:12;99274.34;;;1.59;100.00
43503;BME280;29098;48.184;16.298;2023-02-02T02:11:38;99285.94;;;1.55;100.00
43503;BME280;29098;48.184;16.298;2023-02-02T02:14:04;99285.81;;;1.57;100.00
43503;BME280;29098;48.184;16.298;2023-02-02T02:22:12;99283.34;;;1.55;100.00
43503;BME280;29098;48.184;16.298;2023-02-02T02:25:05;99273.50;;;1.59;100.00
43503;BME280;29098;48.184;16.298;2023-02-02T02:30:36;99283.53;;;1.63;100.00
43503;BME280;29098;48.184;16.298;2023-02-02T02:35:35;99279.03;;;1.66;100.00
43503;BME280;29098;48.184;16.298;2023-02-02T02:38:10;99273.03;;;1.65;100.00
43503;BME280;29098;48.184;16.298;2023-02-02T02:40:43;99269.97;;;1.60;100.00
43503;BME280;29098;48.184;16.298;2023-02-02T02:43:17;99274.34;;;1.59;100.00
43503;BME280;29098;48.184;16.298;2023-02-02T02:45:45;99273.63;;;1.57;100.00
43503;BME280;29098;48.184;16.298;2023-02-02T02:48:10;99274.28;;;1.49;100.00
43503;BME280;29098;48.184;16.298;2023-02-02T02:50:36;99267.53;;;1.47;100.00
43503;BME280;29098;48.184;16.298;2023-02-02T02:53:07;99274.53;;;1.46;100.00
43503;BME280;29098;48.184;16.298;2023-02-02T02:55:40;99269.88;;;1.50;100.00
43503;BME280;29098;48.184;16.298;2023-02-02T02:58:15;99250.31;;;1.46;100.00
43503;BME280;29098;48.184;16.298;2023-02-02T03:01:01;99259.88;;;1.45;100.00
43503;BME280;29098;48.184;16.298;2023-02-02T03:03:32;99261.47;;;1.36;100.00
43503;BME280;29098;48.184;16.298;2023-02-02T03:06:11;99256.97;;;1.39;100.00
43503;BME280;29098;48.184;16.298;2023-02-02T03:08:42;99255.91;;;1.30;100.00
43503;BME280;29098;48.184;16.298;2023-02-02T03:11:10;99255.91;;;1.30;100.00
43503;BME280;29098;48.184;16.298;2023-02-02T03:13:37;99260.03;;;1.32;100.00
43503;BME280;29098;48.184;16.298;2023-02-02T03:16:02;99261.25;;;1.28;100.00
43503;BME280;29098;48.184;16.298;2023-02-02T03:18:28;99260.03;;;1.32;100.00
43503;BME280;29098;48.184;16.298;2023-02-02T03:20:54;99259.28;;;1.42;100.00
43503;BME280;29098;48.184;16.298;2023-02-02T03:23:20;99265.69;;;1.38;100.00
43503;BME280;29098;48.184;16.298;2023-02-02T03:25:45;99268.88;;;1.41;100.00
43503;BME280;29098;48.184;16.298;2023-02-02T03:28:11;99272.00;;;1.56;100.00
43503;BME280;29098;48.184;16.298;2023-02-02T03:30:37;99267.44;;;1.48;100.00
43503;BME280;29098;48.184;16.298;2023-02-02T03:33:03;99272.47;;;1.50;100.00
43503;BME280;29098;48.184;16.298;2023-02-02T03:35:29;99272.72;;;1.58;100.00
43503;BME280;29098;48.184;16.298;2023-02-02T03:37:55;99272.00;;;1.56;100.00
43503;BME280;29098;48.184;16.298;2023-02-02T03:40:20;99271.03;;;1.57;100.00
43503;BME280;29098;48.184;16.298;2023-02-02T03:42:45;99274.38;;;1.48;100.00
43503;BME280;29098;48.184;16.298;2023-02-02T03:45:11;99269.34;;;1.46;100.00
43503;BME280;29098;48.184;16.298;2023-02-02T03:47:36;99275.13;;;1.39;100.00
43503;BME280;29098;48.184;16.298;2023-02-02T03:50:01;99274.19;;;1.40;100.00
43503;BME280;29098;48.184;16.298;2023-02-02T03:52:27;99267.47;;;1.37;100.00
43503;BME280;29098;48.184;16.298;2023-02-02T03:54:52;99268.28;;;1.38;100.00
43503;BME280;29098;48.184;16.298;2023-02-02T03:57:17;99264.16;;;1.35;100.00
43503;BME280;29098;48.184;16.298;2023-02-02T03:59:43;99264.50;;;1.42;100.00
43503;BME280;29098;48.184;16.298;2023-02-02T04:02:08;99260.63;;;1.36;100.00
43503;BME280;29098;48.184;16.298;2023-02-02T04:04:33;99257.91;;;1.38;100.00
43503;BME280;29098;48.184;16.298;2023-02-02T04:06:59;99256.84;;;1.40;100.00
43503;BME280;29098;48.184;16.298;2023-02-02T04:09:25;99258.59;;;1.40;100.00
43503;BME280;29098;48.184;16.298;2023-02-02T04:11:51;99258.59;;;1.40;100.00
43503;BME280;29098;48.184;16.298;2023-02-02T04:14:16;99258.31;;;1.54;100.00
43503;BME280;29098;48.184;16.298;2023-02-02T04:16:41;99267.75;;;1.55;100.00
43503;BME280;29098;48.184;16.298;2023-02-02T04:19:07;99268.19;;;1.60;100.00
43503;BME280;29098;48.184;16.298;2023-02-02T04:21:32;99259.91;;;1.67;100.00
43503;BME280;29098;48.184;16.298;2023-02-02T04:23:58;99278.63;;;1.49;100.00
43503;BME280;29098;48.184;16.298;2023-02-02T04:26:23;99263.38;;;1.56;100.00
43503;BME280;29098;48.184;16.298;2023-02-02T04:28:50;99262.09;;;1.50;100.00
43503;BME280;29098;48.184;16.298;2023-02-02T04:31:15;99272.16;;;1.43;100.00
43503;BME280;29098;48.184;16.298;2023-02-02T04:33:41;99275.44;;;1.45;100.00
43503;BME280;29098;48.184;16.298;2023-02-02T04:36:06;99277.44;;;1.53;100.00
43503;BME280;29098;48.184;16.298;2023-02-02T04:38:31;99282.88;;;1.50;100.00
43503;BME280;29098;48.184;16.298;2023-02-02T04:40:57;99280.66;;;1.45;100.00
43503;BME280;29098;48.184;16.298;2023-02-02T04:43:22;99276.03;;;1.49;100.00
43503;BME280;29098;48.184;16.298;2023-02-02T04:45:53;99261.16;;;1.51;100.00
43503;BME280;29098;48.184;16.298;2023-02-02T04:48:18;99261.41;;;1.69;100.00
43503;BME280;29098;48.184;16.298;2023-02-02T04:50:43;99258.88;;;1.58;100.00
43503;BME280;29098;48.184;16.298;2023-02-02T04:53:09;99262.88;;;1.62;100.00
43503;BME280;29098;48.184;16.298;2023-02-02T04:55:35;99253.00;;;1.77;100.00
43503;BME280;29098;48.184;16.298;2023-02-02T04:58:00;99250.66;;;1.74;100.00
43503;BME280;29098;48.184;16.298;2023-02-02T05:00:25;99262.88;;;1.83;100.00
43503;BME280;29098;48.184;16.298;2023-02-02T05:02:51;99249.00;;;1.94;100.00
43503;BME280;29098;48.184;16.298;2023-02-02T05:05:16;99264.03;;;1.90;100.00
43503;BME280;29098;48.184;16.298;2023-02-02T05:07:49;99263.53;;;1.97;100.00
43503;BME280;29098;48.184;16.298;2023-02-02T05:10:15;99278.34;;;2.06;100.00
43503;BME280;29098;48.184;16.298;2023-02-02T05:12:43;99273.00;;;2.08;100.00
43503;BME280;29098;48.184;16.298;2023-02-02T05:15:08;99271.75;;;2.02;100.00
43503;BME280;29098;48.184;16.298;2023-02-02T05:17:34;99276.06;;;1.91;100.00
43503;BME280;29098;48.184;16.298;2023-02-02T05:19:59;99272.06;;;2.09;100.00
43503;BME280;29098;48.184;16.298;2023-02-02T05:22:24;99279.31;;;2.05;100.00
43503;BME280;29098;48.184;16.298;2023-02-02T05:24:50;99272.81;;;1.99;100.00
43503;BME280;29098;48.184;16.298;2023-02-02T05:27:15;99270.38;;;1.98;100.00
43503;BME280;29098;48.184;16.298;2023-02-02T05:29:40;99267.00;;;1.86;100.00
43503;BME280;29098;48.184;16.298;2023-02-02T05:32:06;99263.94;;;2.02;100.00
43503;BME280;29098;48.184;16.298;2023-02-02T05:34:31;99270.16;;;2.11;100.00
43503;BME280;29098;48.184;16.298;2023-02-02T05:36:56;99276.69;;;2.05;100.00
43503;BME280;29098;48.184;16.298;2023-02-02T05:39:21;99274.41;;;2.12;100.00
43503;BME280;29098;48.184;16.298;2023-02-02T05:41:47;99274.13;;;2.15;100.00
43503;BME280;29098;48.184;16.298;2023-02-02T05:44:12;99281.44;;;2.21;100.00
43503;BME280;29098;48.184;16.298;2023-02-02T05:46:38;99272.75;;;2.11;100.00
43503;BME280;29098;48.184;16.298;2023-02-02T05:49:03;99276.03;;;2.13;100.00
43503;BME280;29098;48.184;16.298;2023-02-02T05:51:39;99268.00;;;2.16;100.00
43503;BME280;29098;48.184;16.298;2023-02-02T05:54:07;99288.13;;;1.92;100.00
43503;BME280;29098;48.184;16.298;2023-02-02T05:56:32;99284.25;;;1.87;100.00
43503;BME280;29098;48.184;16.298;2023-02-02T05:58:58;99285.00;;;1.99;100.00
43503;BME280;29098;48.184;16.298;2023-02-02T06:01:24;99294.88;;;1.84;100.00
43503;BME280;29098;48.184;16.298;2023-02-02T06:03:49;99299.50;;;1.80;100.00
43503;BME280;29098;48.184;16.298;2023-02-02T06:06:14;99302.56;;;1.85;100.00
43503;BME280;29098;48.184;16.298;2023-02-02T06:08:40;99302.25;;;1.78;100.00
43503;BME280;29098;48.184;16.298;2023-02-02T06:11:12;99304.72;;;1.80;100.00
43503;BME280;29098;48.184;16.298;2023-02-02T06:13:38;99309.75;;;1.93;100.00
43503;BME280;29098;48.184;16.298;2023-02-02T06:16:04;99311.59;;;1.81;100.00
43503;BME280;29098;48.184;16.298;2023-02-02T06:18:29;99312.97;;;1.85;100.00
43503;BME280;29098;48.184;16.298;2023-02-02T06:20:55;99317.41;;;1.95;100.00
43503;BME280;29098;48.184;16.298;2023-02-02T06:23:21;99327.09;;;1.92;100.00
43503;BME280;29098;48.184;16.298;2023-02-02T06:25:46;99336.56;;;1.94;100.00
43503;BME280;29098;48.184;16.298;2023-02-02T06:28:12;99332.13;;;1.84;100.00
43503;BME280;29098;48.184;16.298;2023-02-02T06:30:37;99330.91;;;1.88;100.00
43503;BME280;29098;48.184;16.298;2023-02-02T06:33:02;99330.53;;;1.93;100.00
43503;BME280;29098;48.184;16.298;2023-02-02T06:35:28;99348.53;;;1.85;100.00
43503;BME280;29098;48.184;16.298;2023-02-02T06:37:53;99345.31;;;1.92;100.00
43503;BME280;29098;48.184;16.298;2023-02-02T06:40:19;99353.94;;;2.14;100.00
43503;BME280;29098;48.184;16.298;2023-02-02T06:42:44;99354.72;;;2.05;100.00
43503;BME280;29098;48.184;16.298;2023-02-02T06:45:09;99368.09;;;2.00;100.00
43503;BME280;29098;48.184;16.298;2023-02-02T06:47:37;99365.81;;;2.07;100.00
43503;BME280;29098;48.184;16.298;2023-02-02T06:50:03;99378.31;;;2.13;100.00
43503;BME280;29098;48.184;16.298;2023-02-02T06:52:28;99386.03;;;2.25;100.00
43503;BME280;29098;48.184;16.298;2023-02-02T06:54:54;99388.72;;;2.13;100.00
43503;BME280;29098;48.184;16.298;2023-02-02T06:57:19;99393.66;;;2.16;100.00
43503;BME280;29098;48.184;16.298;2023-02-02T06:59:47;99391.03;;;2.16;100.00
43503;BME280;29098;48.184;16.298;2023-02-02T07:02:14;99389.47;;;2.25;100.00
43503;BME280;29098;48.184;16.298;2023-02-02T07:04:40;99395.69;;;2.34;100.00
43503;BME280;29098;48.184;16.298;2023-02-02T07:07:05;99392.94;;;2.36;100.00
43503;BME280;29098;48.184;16.298;2023-02-02T07:09:33;99395.16;;;2.40;100.00
43503;BME280;29098;48.184;16.298;2023-02-02T07:11:59;99404.06;;;2.59;100.00
43503;BME280;29098;48.184;16.298;2023-02-02T07:14:24;99401.06;;;2.42;100.00
43503;BME280;29098;48.184;16.298;2023-02-02T07:16:50;99414.53;;;2.47;100.00
43503;BME280;29098;48.184;16.298;2023-02-02T07:19:15;99408.31;;;2.60;100.00
43503;BME280;29098;48.184;16.298;2023-02-02T07:21:40;99408.19;;;2.40;100.00
43503;BME280;29098;48.184;16.298;2023-02-02T07:24:06;99405.06;;;2.46;100.00
43503;BME280;29098;48.184;16.298;2023-02-02T07:26:33;99411.69;;;2.51;100.00
43503;BME280;29098;48.184;16.298;2023-02-02T07:28:58;99405.81;;;2.58;100.00
43503;BME280;29098;48.184;16.298;2023-02-02T07:31:24;99418.38;;;2.53;100.00
43503;BME280;29098;48.184;16.298;2023-02-02T07:33:51;99413.63;;;2.58;100.00
43503;BME280;29098;48.184;16.298;2023-02-02T07:36:17;99424.88;;;2.59;100.00
43503;BME280;29098;48.184;16.298;2023-02-02T07:38:44;99424.00;;;2.70;100.00
43503;BME280;29098;48.184;16.298;2023-02-02T07:41:10;99427.91;;;2.64;100.00
43503;BME280;29098;48.184;16.298;2023-02-02T07:43:35;99438.47;;;2.63;100.00
43503;BME280;29098;48.184;16.298;2023-02-02T07:46:01;99432.66;;;2.80;100.00
43503;BME280;29098;48.184;16.298;2023-02-02T07:48:29;99431.41;;;2.74;100.00
43503;BME280;29098;48.184;16.298;2023-02-02T07:50:58;99424.28;;;2.77;100.00
43503;BME280;29098;48.184;16.298;2023-02-02T07:53:24;99427.47;;;2.80;100.00
43503;BME280;29098;48.184;16.298;2023-02-02T07:55:50;99422.50;;;2.77;100.00
43503;BME280;29098;48.184;16.298;2023-02-02T07:58:15;99432.00;;;2.88;100.00
43503;BME280;29098;48.184;16.298;2023-02-02T08:00:40;99427.19;;;2.83;100.00
43503;BME280;29098;48.184;16.298;2023-02-02T08:03:08;99432.72;;;2.90;100.00
43503;BME280;29098;48.184;16.298;2023-02-02T08:05:34;99428.19;;;2.92;100.00
43503;BME280;29098;48.184;16.298;2023-02-02T08:07:59;99426.97;;;2.96;100.00
43503;BME280;29098;48.184;16.298;2023-02-02T08:10:25;99433.69;;;2.99;100.00
43503;BME280;29098;48.184;16.298;2023-02-02T08:12:50;99427.25;;;2.93;100.00
43503;BME280;29098;48.184;16.298;2023-02-02T08:15:15;99427.69;;;2.98;100.00
43503;BME280;29098;48.184;16.298;2023-02-02T08:17:43;99437.66;;;2.93;100.00
43503;BME280;29098;48.184;16.298;2023-02-02T08:20:09;99430.47;;;3.07;100.00
43503;BME280;29098;48.184;16.298;2023-02-02T08:22:36;99438.41;;;3.05;100.00
43503;BME280;29098;48.184;16.298;2023-02-02T08:25:03;99426.78;;;3.09;100.00
43503;BME280;29098;48.184;16.298;2023-02-02T08:27:28;99431.44;;;3.15;100.00
43503;BME280;29098;48.184;16.298;2023-02-02T08:29:54;99433.09;;;3.17;100.00
43503;BME280;29098;48.184;16.298;2023-02-02T08:32:19;99437.69;;;3.34;100.00
43503;BME280;29098;48.184;16.298;2023-02-02T08:34:46;99442.09;;;3.43;100.00
43503;BME280;29098;48.184;16.298;2023-02-02T08:37:12;99440.84;;;3.38;100.00
43503;BME280;29098;48.184;16.298;2023-02-02T08:39:37;99441.94;;;3.35;100.00
43503;BME280;29098;48.184;16.298;2023-02-02T08:42:02;99443.09;;;3.52;100.00
43503;BME280;29098;48.184;16.298;2023-02-02T08:44:28;99454.88;;;3.56;100.00
43503;BME280;29098;48.184;16.298;2023-02-02T08:46:53;99449.78;;;3.45;100.00
43503;BME280;29098;48.184;16.298;2023-02-02T08:49:19;99445.28;;;3.57;99.11
43503;BME280;29098;48.184;16.298;2023-02-02T08:51:44;99447.78;;;3.59;98.84
43503;BME280;29098;48.184;16.298;2023-02-02T08:54:09;99464.75;;;3.43;98.37
43503;BME280;29098;48.184;16.298;2023-02-02T08:56:34;99469.25;;;3.41;100.00
43503;BME280;29098;48.184;16.298;2023-02-02T08:59:00;99475.25;;;3.32;100.00
43503;BME280;29098;48.184;16.298;2023-02-02T09:01:29;99470.88;;;3.42;100.00
43503;BME280;29098;48.184;16.298;2023-02-02T09:03:56;99477.50;;;3.46;99.67
43503;BME280;29098;48.184;16.298;2023-02-02T09:06:23;99471.88;;;3.51;99.99
43503;BME280;29098;48.184;16.298;2023-02-02T09:08:50;99475.44;;;3.50;100.00
43503;BME280;29098;48.184;16.298;2023-02-02T09:11:16;99472.38;;;3.35;100.00
43503;BME280;29098;48.184;16.298;2023-02-02T09:13:42;99478.06;;;3.50;99.32
43503;BME280;29098;48.184;16.298;2023-02-02T09:16:12;99480.94;;;3.56;98.40
43503;BME280;29098;48.184;16.298;2023-02-02T09:18:38;99482.03;;;3.54;98.65
43503;BME280;29098;48.184;16.298;2023-02-02T09:21:06;99482.91;;;3.64;97.65
43503;BME280;29098;48.184;16.298;2023-02-02T09:23:32;99482.59;;;3.58;95.87
43503;BME280;29098;48.184;16.298;2023-02-02T09:26:07;99493.22;;;3.66;97.38
43503;BME280;29098;48.184;16.298;2023-02-02T09:28:32;99491.13;;;3.60;97.38
43503;BME280;29098;48.184;16.298;2023-02-02T09:31:00;99488.41;;;3.71;96.81
43503;BME280;29098;48.184;16.298;2023-02-02T09:33:25;99492.53;;;3.74;96.90
43503;BME280;29098;48.184;16.298;2023-02-02T09:35:50;99500.59;;;3.61;98.34
43503;BME280;29098;48.184;16.298;2023-02-02T09:38:16;99498.00;;;3.61;97.58
43503;BME280;29098;48.184;16.298;2023-02-02T09:40:41;99492.53;;;3.74;96.67
43503;BME280;29098;48.184;16.298;2023-02-02T09:43:14;99493.38;;;3.74;97.74
43503;BME280;29098;48.184;16.298;2023-02-02T09:48:45;99502.53;;;3.68;97.50
43503;BME280;29098;48.184;16.298;2023-02-02T09:51:17;99503.38;;;3.79;98.80
43503;BME280;29098;48.184;16.298;2023-02-02T09:56:11;99511.06;;;3.70;97.73
43503;BME280;29098;48.184;16.298;2023-02-02T09:58:44;99511.34;;;3.77;96.56
43503;BME280;29098;48.184;16.298;2023-02-02T10:01:13;99513.94;;;3.77;96.46
43503;BME280;29098;48.184;16.298;2023-02-02T10:06:35;99515.44;;;3.70;95.31
43503;BME280;29098;48.184;16.298;2023-02-02T10:09:21;99511.66;;;3.53;97.60
43503;BME280;29098;48.184;16.298;2023-02-02T10:14:39;99517.56;;;3.45;97.35
43503;BME280;29098;48.184;16.298;2023-02-02T10:17:25;99511.09;;;3.49;96.49
43503;BME280;29098;48.184;16.298;2023-02-02T10:19:56;99522.66;;;3.56;94.95
43503;BME280;29098;48.184;16.298;2023-02-02T10:22:23;99523.06;;;3.52;95.60
43503;BME280;29098;48.184;16.298;2023-02-02T10:24:52;99521.06;;;3.65;95.15
43503;BME280;29098;48.184;16.298;2023-02-02T10:27:22;99523.44;;;3.88;94.60
43503;BME280;29098;48.184;16.298;2023-02-02T10:29:57;99516.00;;;3.74;94.61
43503;BME280;29098;48.184;16.298;2023-02-02T10:38:02;99508.06;;;3.95;93.18
43503;BME280;29098;48.184;16.298;2023-02-02T10:40:39;99515.38;;;4.01;93.81
43503;BME280;29098;48.184;16.298;2023-02-02T10:46:08;99512.38;;;4.16;91.61
43503;BME280;29098;48.184;16.298;2023-02-02T10:48:36;99512.06;;;3.99;91.63
43503;BME280;29098;48.184;16.298;2023-02-02T10:51:02;99519.66;;;4.12;91.74
43503;BME280;29098;48.184;16.298;2023-02-02T10:53:30;99514.56;;;4.01;91.42
43503;BME280;29098;48.184;16.298;2023-02-02T10:56:09;99519.47;;;3.94;93.17
43503;BME280;29098;48.184;16.298;2023-02-02T10:58:45;99517.53;;;3.96;94.09
43503;BME280;29098;48.184;16.298;2023-02-02T11:01:14;99522.75;;;3.96;93.83
43503;BME280;29098;48.184;16.298;2023-02-02T11:03:42;99527.16;;;3.95;94.06
43503;BME280;29098;48.184;16.298;2023-02-02T11:06:07;99519.19;;;3.87;92.87
43503;BME280;29098;48.184;16.298;2023-02-02T11:08:53;99517.81;;;3.93;92.85
43503;BME280;29098;48.184;16.298;2023-02-02T11:11:24;99524.97;;;3.91;93.55
43503;BME280;29098;48.184;16.298;2023-02-02T11:13:55;99510.91;;;3.72;94.25
43503;BME280;29098;48.184;16.298;2023-02-02T11:16:31;99520.28;;;3.84;94.64
43503;BME280;29098;48.184;16.298;2023-02-02T11:18:57;99524.13;;;3.90;92.13
43503;BME280;29098;48.184;16.298;2023-02-02T11:21:30;99524.25;;;3.79;93.16
43503;BME280;29098;48.184;16.298;2023-02-02T11:24:20;99511.50;;;3.86;94.10
43503;BME280;29098;48.184;16.298;2023-02-02T11:29:33;99513.66;;;3.80;95.90
43503;BME280;29098;48.184;16.298;2023-02-02T11:32:24;99515.44;;;3.70;95.61
43503;BME280;29098;48.184;16.298;2023-02-02T11:37:27;99515.63;;;3.88;94.50
43503;BME280;29098;48.184;16.298;2023-02-02T11:39:52;99509.84;;;3.84;94.59
43503;BME280;29098;48.184;16.298;2023-02-02T11:42:21;99509.25;;;3.71;95.61
43503;BME280;29098;48.184;16.298;2023-02-02T11:44:52;99515.72;;;3.67;96.16
43503;BME280;29098;48.184;16.298;2023-02-02T11:47:36;99503.31;;;3.59;96.62
43503;BME280;29098;48.184;16.298;2023-02-02T11:50:02;99510.59;;;3.55;96.25
43503;BME280;29098;48.184;16.298;2023-02-02T11:52:29;99502.25;;;3.62;96.13
43503;BME280;29098;48.184;16.298;2023-02-02T11:54:56;99499.91;;;3.59;96.78
43503;BME280;29098;48.184;16.298;2023-02-02T11:57:22;99507.00;;;3.56;97.00
43503;BME280;29098;48.184;16.298;2023-02-02T11:59:51;99511.16;;;3.59;96.79
43503;BME280;29098;48.184;16.298;2023-02-02T12:02:30;99503.09;;;3.72;95.98
43503;BME280;29098;48.184;16.298;2023-02-02T12:07:37;99502.03;;;3.84;95.88
43503;BME280;29098;48.184;16.298;2023-02-02T12:10:18;99498.03;;;3.70;96.74
43503;BME280;29098;48.184;16.298;2023-02-02T12:17:41;99498.03;;;3.80;95.42
43503;BME280;29098;48.184;16.298;2023-02-02T12:22:39;99493.66;;;3.91;95.49
43503;BME280;29098;48.184;16.298;2023-02-02T12:27:56;99487.09;;;3.96;94.26
43503;BME280;29098;48.184;16.298;2023-02-02T12:30:47;99492.00;;;4.00;93.84
43503;BME280;29098;48.184;16.298;2023-02-02T12:43:44;99475.16;;;4.04;93.79
43503;BME280;29098;48.184;16.298;2023-02-02T12:46:30;99474.16;;;3.85;94.03
43503;BME280;29098;48.184;16.298;2023-02-02T13:01:59;99473.91;;;4.08;94.68
43503;BME280;29098;48.184;16.298;2023-02-02T13:09:27;99470.88;;;3.93;94.57
43503;BME280;29098;48.184;16.298;2023-02-02T13:12:07;99470.06;;;4.02;94.90
43503;BME280;29098;48.184;16.298;2023-02-02T13:14:35;99468.94;;;3.95;95.41
43503;BME280;29098;48.184;16.298;2023-02-02T13:17:04;99472.53;;;3.94;94.64
43503;BME280;29098;48.184;16.298;2023-02-02T13:19:37;99474.31;;;3.93;94.78
43503;BME280;29098;48.184;16.298;2023-02-02T13:22:04;99473.06;;;3.97;95.42
43503;BME280;29098;48.184;16.298;2023-02-02T13:24:32;99477.75;;;3.94;94.87
43503;BME280;29098;48.184;16.298;2023-02-02T13:27:00;99479.38;;;3.95;94.45
43503;BME280;29098;48.184;16.298;2023-02-02T13:29:31;99478.03;;;3.91;96.02
43503;BME280;29098;48.184;16.298;2023-02-02T13:34:38;99478.16;;;3.99;95.01
43503;BME280;29098;48.184;16.298;2023-02-02T13:39:55;99473.63;;;4.01;94.60
43503;BME280;29098;48.184;16.298;2023-02-02T13:42:37;99485.31;;;3.97;94.85
43503;BME280;29098;48.184;16.298;2023-02-02T13:47:53;99479.91;;;3.89;95.11
43503;BME280;29098;48.184;16.298;2023-02-02T13:50:22;99496.81;;;3.84;96.09
43503;BME280;29098;48.184;16.298;2023-02-02T13:53:07;99485.41;;;3.86;96.77
43503;BME280;29098;48.184;16.298;2023-02-02T14:00:50;99494.88;;;3.87;95.77
43503;BME280;29098;48.184;16.298;2023-02-02T14:08:30;99503.53;;;3.87;95.92
43503;BME280;29098;48.184;16.298;2023-02-02T14:10:56;99507.13;;;3.86;95.70
43503;BME280;29098;48.184;16.298;2023-02-02T14:13:30;99507.34;;;3.73;96.25
43503;BME280;29098;48.184;16.298;2023-02-02T14:17:01;99518.03;;;3.70;96.41
43503;BME280;29098;48.184;16.298;2023-02-02T14:19:14;99519.59;;;3.82;96.45
43503;BME280;29098;48.184;16.298;2023-02-02T14:26:50;99530.13;;;3.71;97.11
43503;BME280;29098;48.184;16.298;2023-02-02T14:32:00;99527.25;;;3.84;96.03
43503;BME280;29098;48.184;16.298;2023-02-02T14:42:28;99564.41;;;3.66;96.76
43503;BME280;29098;48.184;16.298;2023-02-02T14:45:15;99563.28;;;3.59;97.44
43503;BME280;29098;48.184;16.298;2023-02-02T14:47:47;99564.13;;;3.60;97.95
43503;BME280;29098;48.184;16.298;2023-02-02T14:50:14;99575.13;;;3.63;97.76
43503;BME280;29098;48.184;16.298;2023-02-02T14:52:41;99568.81;;;3.66;97.65